sensor_id;sensor_type;location;lat;lon;timestamp;P1;durP1;ratioP1;P2;durP2;ratioP2
4102;SDS011;2065;49.790;9.620;2023-04-08T00:00:28;10.43;;;7.30;;
4102;SDS011;2065;49.790;9.620;2023-04-08T00:02:57;11.73;;;8.00;;
4102;SDS011;2065;49.790;9.620;2023-04-08T00:05:24;14.10;;;8.33;;
4102;SDS011;2065;49.790;9.620;2023-04-08T00:07:51;14.20;;;8.77;;
4102;SDS011;2065;49.790;9.620;2023-04-08T00:10:18;15.53;;;8.80;;
4102;SDS011;2065;49.790;9.620;2023-04-08T00:12:46;13.27;;;8.80;;
4102;SDS011;2065;49.790;9.620;2023-04-08T00:15:13;13.10;;;8.10;;
4102;SDS011;2065;49.790;9.620;2023-04-08T00:17:40;11.03;;;7.67;;
4102;SDS011;2065;49.790;9.620;2023-04-08T00:20:09;11.47;;;8.60;;
4102;SDS011;2065;49.790;9.620;2023-04-08T00:22:36;13.33;;;8.97;;
4102;SDS011;2065;49.790;9.620;2023-04-08T00:25:03;11.70;;;9.00;;
4102;SDS011;2065;49.790;9.620;2023-04-08T00:27:33;16.80;;;9.03;;
4102;SDS011;2065;49.790;9.620;2023-04-08T00:30:00;11.63;;;8.37;;
4102;SDS011;2065;49.790;9.620;2023-04-08T00:32:28;14.90;;;8.13;;
4102;SDS011;2065;49.790;9.620;2023-04-08T00:34:56;13.87;;;9.10;;
4102;SDS011;2065;49.790;9.620;2023-04-08T00:37:24;15.37;;;9.90;;
4102;SDS011;2065;49.790;9.620;2023-04-08T00:39:51;17.13;;;10.00;;
4102;SDS011;2065;49.790;9.620;2023-04-08T00:42:18;15.80;;;9.20;;
4102;SDS011;2065;49.790;9.620;2023-04-08T00:44:46;11.90;;;8.57;;
4102;SDS011;2065;49.790;9.620;2023-04-08T00:47:14;11.70;;;9.00;;
4102;SDS011;2065;49.790;9.620;2023-04-08T00:49:41;13.70;;;7.97;;
4102;SDS011;2065;49.790;9.620;2023-04-08T00:52:09;19.77;;;7.93;;
4102;SDS011;2065;49.790;9.620;2023-04-08T00:54:37;10.63;;;7.90;;
4102;SDS011;2065;49.790;9.620;2023-04-08T00:57:05;15.20;;;8.03;;
4102;SDS011;2065;49.790;9.620;2023-04-08T00:59:33;11.23;;;7.87;;
4102;SDS011;2065;49.790;9.620;2023-04-08T01:02:04;13.80;;;8.80;;
4102;SDS011;2065;49.790;9.620;2023-04-08T01:04:38;10.20;;;7.77;;
4102;SDS011;2065;49.790;9.620;2023-04-08T01:07:12;18.90;;;9.90;;
4102;SDS011;2065;49.790;9.620;2023-04-08T01:09:46;28.47;;;14.30;;
4102;SDS011;2065;49.790;9.620;2023-04-08T01:12:17;25.00;;;14.13;;
4102;SDS011;2065;49.790;9.620;2023-04-08T01:14:48;25.07;;;13.50;;
4102;SDS011;2065;49.790;9.620;2023-04-08T01:17:22;22.50;;;11.53;;
4102;SDS011;2065;49.790;9.620;2023-04-08T01:19:49;18.93;;;10.87;;
4102;SDS011;2065;49.790;9.620;2023-04-08T01:22:19;23.70;;;11.17;;
4102;SDS011;2065;49.790;9.620;2023-04-08T01:24:56;18.60;;;10.23;;
4102;SDS011;2065;49.790;9.620;2023-04-08T01:27:29;18.03;;;9.70;;
4102;SDS011;2065;49.790;9.620;2023-04-08T01:29:59;16.40;;;10.07;;
4102;SDS011;2065;49.790;9.620;2023-04-08T01:32:29;16.70;;;9.17;;
4102;SDS011;2065;49.790;9.620;2023-04-08T01:34:57;16.00;;;8.73;;
4102;SDS011;2065;49.790;9.620;2023-04-08T01:37:27;22.40;;;10.20;;
4102;SDS011;2065;49.790;9.620;2023-04-08T01:39:55;15.40;;;9.43;;
4102;SDS011;2065;49.790;9.620;2023-04-08T01:42:24;14.37;;;9.40;;
4102;SDS011;2065;49.790;9.620;2023-04-08T01:44:56;19.13;;;9.00;;
4102;SDS011;2065;49.790;9.620;2023-04-08T01:47:24;20.20;;;10.03;;
4102;SDS011;2065;49.790;9.620;2023-04-08T01:49:53;14.17;;;8.63;;
4102;SDS011;2065;49.790;9.620;2023-04-08T01:52:22;18.23;;;10.47;;
4102;SDS011;2065;49.790;9.620;2023-04-08T01:54:50;16.47;;;11.00;;
4102;SDS011;2065;49.790;9.620;2023-04-08T01:57:20;15.80;;;9.20;;
4102;SDS011;2065;49.790;9.620;2023-04-08T01:59:51;29.73;;;10.77;;
4102;SDS011;2065;49.790;9.620;2023-04-08T02:02:24;18.70;;;11.20;;
4102;SDS011;2065;49.790;9.620;2023-04-08T02:04:52;21.40;;;10.80;;
4102;SDS011;2065;49.790;9.620;2023-04-08T02:07:19;21.83;;;10.00;;
4102;SDS011;2065;49.790;9.620;2023-04-08T02:09:46;15.43;;;9.20;;
4102;SDS011;2065;49.790;9.620;2023-04-08T02:12:13;16.90;;;8.93;;
4102;SDS011;2065;49.790;9.620;2023-04-08T02:14:40;15.50;;;8.83;;
4102;SDS011;2065;49.790;9.620;2023-04-08T02:17:09;39.97;;;10.63;;
4102;SDS011;2065;49.790;9.620;2023-04-08T02:19:43;40.37;;;9.70;;
4102;SDS011;2065;49.790;9.620;2023-04-08T02:22:16;52.27;;;12.17;;
4102;SDS011;2065;49.790;9.620;2023-04-08T02:24:48;26.87;;;11.20;;
4102;SDS011;2065;49.790;9.620;2023-04-08T02:27:16;19.23;;;8.40;;
4102;SDS011;2065;49.790;9.620;2023-04-08T02:29:43;58.70;;;12.47;;
4102;SDS011;2065;49.790;9.620;2023-04-08T02:32:12;20.67;;;11.00;;
4102;SDS011;2065;49.790;9.620;2023-04-08T02:34:41;54.00;;;14.17;;
4102;SDS011;2065;49.790;9.620;2023-04-08T02:37:09;28.20;;;12.43;;
4102;SDS011;2065;49.790;9.620;2023-04-08T02:39:37;58.93;;;14.53;;
4102;SDS011;2065;49.790;9.620;2023-04-08T02:42:03;105.77;;;17.23;;
4102;SDS011;2065;49.790;9.620;2023-04-08T02:44:31;30.37;;;12.13;;
4102;SDS011;2065;49.790;9.620;2023-04-08T02:47:01;28.73;;;10.80;;
4102;SDS011;2065;49.790;9.620;2023-04-08T02:49:28;70.00;;;12.70;;
4102;SDS011;2065;49.790;9.620;2023-04-08T02:51:57;50.20;;;12.37;;
4102;SDS011;2065;49.790;9.620;2023-04-08T02:54:24;41.70;;;11.43;;
4102;SDS011;2065;49.790;9.620;2023-04-08T02:56:52;21.60;;;11.20;;
4102;SDS011;2065;49.790;9.620;2023-04-08T02:59:19;110.40;;;19.10;;
4102;SDS011;2065;49.790;9.620;2023-04-08T03:01:46;17.90;;;10.90;;
4102;SDS011;2065;49.790;9.620;2023-04-08T03:04:13;105.70;;;15.93;;
4102;SDS011;2065;49.790;9.620;2023-04-08T03:06:40;33.63;;;14.53;;
4102;SDS011;2065;49.790;9.620;2023-04-08T03:09:08;58.80;;;18.67;;
4102;SDS011;2065;49.790;9.620;2023-04-08T03:11:35;58.20;;;18.97;;
4102;SDS011;2065;49.790;9.620;2023-04-08T03:14:02;45.30;;;19.37;;
4102;SDS011;2065;49.790;9.620;2023-04-08T03:16:29;30.77;;;17.27;;
4102;SDS011;2065;49.790;9.620;2023-04-08T03:18:56;55.67;;;17.70;;
4102;SDS011;2065;49.790;9.620;2023-04-08T03:21:23;51.83;;;17.30;;
4102;SDS011;2065;49.790;9.620;2023-04-08T03:23:51;41.80;;;16.40;;
4102;SDS011;2065;49.790;9.620;2023-04-08T03:26:19;24.17;;;14.33;;
4102;SDS011;2065;49.790;9.620;2023-04-08T03:28:46;44.17;;;13.87;;
4102;SDS011;2065;49.790;9.620;2023-04-08T03:31:13;24.93;;;11.60;;
4102;SDS011;2065;49.790;9.620;2023-04-08T03:33:40;22.93;;;11.07;;
4102;SDS011;2065;49.790;9.620;2023-04-08T03:36:07;16.67;;;10.00;;
4102;SDS011;2065;49.790;9.620;2023-04-08T03:38:34;30.33;;;11.10;;
4102;SDS011;2065;49.790;9.620;2023-04-08T03:41:01;25.17;;;12.10;;
4102;SDS011;2065;49.790;9.620;2023-04-08T03:43:30;24.17;;;10.00;;
4102;SDS011;2065;49.790;9.620;2023-04-08T03:45:57;22.33;;;10.00;;
4102;SDS011;2065;49.790;9.620;2023-04-08T03:48:25;16.63;;;9.80;;
4102;SDS011;2065;49.790;9.620;2023-04-08T03:50:52;35.10;;;11.90;;
4102;SDS011;2065;49.790;9.620;2023-04-08T03:53:19;28.77;;;12.23;;
4102;SDS011;2065;49.790;9.620;2023-04-08T03:55:47;25.90;;;12.80;;
4102;SDS011;2065;49.790;9.620;2023-04-08T03:58:15;22.50;;;11.10;;
4102;SDS011;2065;49.790;9.620;2023-04-08T04:00:43;28.77;;;11.40;;
4102;SDS011;2065;49.790;9.620;2023-04-08T04:03:10;22.47;;;11.70;;
4102;SDS011;2065;49.790;9.620;2023-04-08T04:05:38;58.73;;;17.67;;
4102;SDS011;2065;49.790;9.620;2023-04-08T04:08:05;33.50;;;14.17;;
4102;SDS011;2065;49.790;9.620;2023-04-08T04:10:33;49.07;;;15.70;;
4102;SDS011;2065;49.790;9.620;2023-04-08T04:13:00;69.50;;;17.83;;
4102;SDS011;2065;49.790;9.620;2023-04-08T04:15:27;95.37;;;21.70;;
4102;SDS011;2065;49.790;9.620;2023-04-08T04:17:56;91.27;;;23.87;;
4102;SDS011;2065;49.790;9.620;2023-04-08T04:20:23;64.67;;;20.53;;
4102;SDS011;2065;49.790;9.620;2023-04-08T04:22:50;55.13;;;19.10;;
4102;SDS011;2065;49.790;9.620;2023-04-08T04:25:17;44.87;;;20.23;;
4102;SDS011;2065;49.790;9.620;2023-04-08T04:27:44;46.63;;;18.70;;
4102;SDS011;2065;49.790;9.620;2023-04-08T04:30:11;41.60;;;17.10;;
4102;SDS011;2065;49.790;9.620;2023-04-08T04:32:39;30.30;;;14.30;;
4102;SDS011;2065;49.790;9.620;2023-04-08T04:35:08;62.10;;;16.93;;
4102;SDS011;2065;49.790;9.620;2023-04-08T04:37:36;42.77;;;16.13;;
4102;SDS011;2065;49.790;9.620;2023-04-08T04:40:03;26.83;;;13.87;;
4102;SDS011;2065;49.790;9.620;2023-04-08T04:42:31;36.13;;;13.07;;
4102;SDS011;2065;49.790;9.620;2023-04-08T04:44:58;36.63;;;14.13;;
4102;SDS011;2065;49.790;9.620;2023-04-08T04:47:25;58.43;;;15.57;;
4102;SDS011;2065;49.790;9.620;2023-04-08T04:49:52;105.83;;;18.87;;
4102;SDS011;2065;49.790;9.620;2023-04-08T04:52:21;53.80;;;18.37;;
4102;SDS011;2065;49.790;9.620;2023-04-08T04:54:48;28.53;;;15.20;;
4102;SDS011;2065;49.790;9.620;2023-04-08T04:57:15;25.93;;;11.77;;
4102;SDS011;2065;49.790;9.620;2023-04-08T04:59:42;32.67;;;12.90;;
4102;SDS011;2065;49.790;9.620;2023-04-08T05:02:09;36.33;;;12.50;;
4102;SDS011;2065;49.790;9.620;2023-04-08T05:04:37;26.70;;;12.20;;
4102;SDS011;2065;49.790;9.620;2023-04-08T05:07:04;29.13;;;15.60;;
4102;SDS011;2065;49.790;9.620;2023-04-08T05:09:32;52.53;;;14.67;;
4102;SDS011;2065;49.790;9.620;2023-04-08T05:11:59;37.97;;;13.67;;
4102;SDS011;2065;49.790;9.620;2023-04-08T05:14:27;40.13;;;13.80;;
4102;SDS011;2065;49.790;9.620;2023-04-08T05:16:55;34.90;;;16.37;;
4102;SDS011;2065;49.790;9.620;2023-04-08T05:19:22;42.20;;;21.83;;
4102;SDS011;2065;49.790;9.620;2023-04-08T05:21:49;47.53;;;21.60;;
4102;SDS011;2065;49.790;9.620;2023-04-08T05:24:16;39.90;;;20.47;;
4102;SDS011;2065;49.790;9.620;2023-04-08T05:26:45;42.93;;;21.20;;
4102;SDS011;2065;49.790;9.620;2023-04-08T05:29:16;33.00;;;18.40;;
4102;SDS011;2065;49.790;9.620;2023-04-08T05:31:44;34.87;;;16.93;;
4102;SDS011;2065;49.790;9.620;2023-04-08T05:34:11;28.23;;;15.23;;
4102;SDS011;2065;49.790;9.620;2023-04-08T05:36:38;31.93;;;17.10;;
4102;SDS011;2065;49.790;9.620;2023-04-08T05:39:05;30.27;;;15.73;;
4102;SDS011;2065;49.790;9.620;2023-04-08T05:41:32;29.17;;;15.97;;
4102;SDS011;2065;49.790;9.620;2023-04-08T05:44:00;30.73;;;16.53;;
4102;SDS011;2065;49.790;9.620;2023-04-08T05:46:27;29.83;;;14.67;;
4102;SDS011;2065;49.790;9.620;2023-04-08T05:48:54;25.10;;;16.00;;
4102;SDS011;2065;49.790;9.620;2023-04-08T05:51:21;29.60;;;16.20;;
4102;SDS011;2065;49.790;9.620;2023-04-08T05:53:48;36.37;;;17.17;;
4102;SDS011;2065;49.790;9.620;2023-04-08T05:56:15;32.73;;;17.07;;
4102;SDS011;2065;49.790;9.620;2023-04-08T05:58:42;26.60;;;14.80;;
4102;SDS011;2065;49.790;9.620;2023-04-08T06:01:11;28.43;;;13.90;;
4102;SDS011;2065;49.790;9.620;2023-04-08T06:03:38;27.47;;;14.80;;
4102;SDS011;2065;49.790;9.620;2023-04-08T06:06:08;27.27;;;14.03;;
4102;SDS011;2065;49.790;9.620;2023-04-08T06:08:35;22.63;;;12.40;;
4102;SDS011;2065;49.790;9.620;2023-04-08T06:11:02;19.30;;;12.00;;
4102;SDS011;2065;49.790;9.620;2023-04-08T06:13:30;17.53;;;10.60;;
4102;SDS011;2065;49.790;9.620;2023-04-08T06:15:57;22.33;;;11.63;;
4102;SDS011;2065;49.790;9.620;2023-04-08T06:18:26;43.80;;;13.90;;
4102;SDS011;2065;49.790;9.620;2023-04-08T06:20:53;25.30;;;13.10;;
4102;SDS011;2065;49.790;9.620;2023-04-08T06:23:20;28.43;;;13.00;;
4102;SDS011;2065;49.790;9.620;2023-04-08T06:25:47;25.83;;;12.20;;
4102;SDS011;2065;49.790;9.620;2023-04-08T06:28:14;24.10;;;14.23;;
4102;SDS011;2065;49.790;9.620;2023-04-08T06:30:41;26.90;;;13.40;;
4102;SDS011;2065;49.790;9.620;2023-04-08T06:33:08;23.47;;;13.33;;
4102;SDS011;2065;49.790;9.620;2023-04-08T06:35:36;25.47;;;13.67;;
4102;SDS011;2065;49.790;9.620;2023-04-08T06:38:03;25.47;;;12.10;;
4102;SDS011;2065;49.790;9.620;2023-04-08T06:40:30;28.83;;;15.00;;
4102;SDS011;2065;49.790;9.620;2023-04-08T06:42:58;22.77;;;12.60;;
4102;SDS011;2065;49.790;9.620;2023-04-08T06:45:33;30.80;;;15.30;;
4102;SDS011;2065;49.790;9.620;2023-04-08T06:48:00;26.40;;;13.77;;
4102;SDS011;2065;49.790;9.620;2023-04-08T06:50:27;31.30;;;16.30;;
4102;SDS011;2065;49.790;9.620;2023-04-08T06:52:56;18.57;;;11.47;;
4102;SDS011;2065;49.790;9.620;2023-04-08T06:55:23;22.63;;;13.27;;
4102;SDS011;2065;49.790;9.620;2023-04-08T06:57:50;24.03;;;15.13;;
4102;SDS011;2065;49.790;9.620;2023-04-08T07:00:17;28.13;;;14.60;;
4102;SDS011;2065;49.790;9.620;2023-04-08T07:02:44;24.90;;;14.70;;
4102;SDS011;2065;49.790;9.620;2023-04-08T07:05:11;20.67;;;12.80;;
4102;SDS011;2065;49.790;9.620;2023-04-08T07:07:38;36.20;;;21.40;;
4102;SDS011;2065;49.790;9.620;2023-04-08T07:10:07;27.43;;;18.50;;
4102;SDS011;2065;49.790;9.620;2023-04-08T07:12:35;25.77;;;13.87;;
4102;SDS011;2065;49.790;9.620;2023-04-08T07:15:02;21.67;;;11.03;;
4102;SDS011;2065;49.790;9.620;2023-04-08T07:17:29;24.40;;;13.70;;
4102;SDS011;2065;49.790;9.620;2023-04-08T07:19:57;21.80;;;14.63;;
4102;SDS011;2065;49.790;9.620;2023-04-08T07:22:24;35.20;;;19.50;;
4102;SDS011;2065;49.790;9.620;2023-04-08T07:24:51;27.70;;;17.53;;
4102;SDS011;2065;49.790;9.620;2023-04-08T07:27:19;29.83;;;18.77;;
4102;SDS011;2065;49.790;9.620;2023-04-08T07:29:50;25.17;;;14.27;;
4102;SDS011;2065;49.790;9.620;2023-04-08T07:32:18;24.47;;;14.07;;
4102;SDS011;2065;49.790;9.620;2023-04-08T07:34:45;28.67;;;15.90;;
4102;SDS011;2065;49.790;9.620;2023-04-08T07:37:12;24.90;;;15.90;;
4102;SDS011;2065;49.790;9.620;2023-04-08T07:39:39;28.80;;;16.60;;
4102;SDS011;2065;49.790;9.620;2023-04-08T07:42:06;29.17;;;15.90;;
4102;SDS011;2065;49.790;9.620;2023-04-08T07:44:35;43.50;;;32.63;;
4102;SDS011;2065;49.790;9.620;2023-04-08T07:47:02;22.43;;;13.60;;
4102;SDS011;2065;49.790;9.620;2023-04-08T07:49:29;28.93;;;15.00;;
4102;SDS011;2065;49.790;9.620;2023-04-08T07:51:56;26.87;;;15.90;;
4102;SDS011;2065;49.790;9.620;2023-04-08T07:54:23;24.17;;;15.10;;
4102;SDS011;2065;49.790;9.620;2023-04-08T07:56:51;23.10;;;15.07;;
4102;SDS011;2065;49.790;9.620;2023-04-08T07:59:18;25.07;;;14.30;;
4102;SDS011;2065;49.790;9.620;2023-04-08T08:01:46;20.23;;;12.30;;
4102;SDS011;2065;49.790;9.620;2023-04-08T08:04:13;22.20;;;12.70;;
4102;SDS011;2065;49.790;9.620;2023-04-08T08:06:40;22.30;;;14.00;;
4102;SDS011;2065;49.790;9.620;2023-04-08T08:09:07;21.70;;;13.07;;
4102;SDS011;2065;49.790;9.620;2023-04-08T08:11:34;22.97;;;13.10;;
4102;SDS011;2065;49.790;9.620;2023-04-08T08:14:01;26.53;;;17.27;;
4102;SDS011;2065;49.790;9.620;2023-04-08T08:16:29;18.00;;;11.53;;
4102;SDS011;2065;49.790;9.620;2023-04-08T08:18:57;18.87;;;12.70;;
4102;SDS011;2065;49.790;9.620;2023-04-08T08:21:25;19.27;;;12.90;;
4102;SDS011;2065;49.790;9.620;2023-04-08T08:23:52;22.27;;;12.90;;
4102;SDS011;2065;49.790;9.620;2023-04-08T08:26:21;22.53;;;13.57;;
4102;SDS011;2065;49.790;9.620;2023-04-08T08:28:48;20.67;;;13.20;;
4102;SDS011;2065;49.790;9.620;2023-04-08T08:31:15;19.37;;;13.00;;
4102;SDS011;2065;49.790;9.620;2023-04-08T08:33:42;21.20;;;12.37;;
4102;SDS011;2065;49.790;9.620;2023-04-08T08:36:10;23.73;;;12.10;;
4102;SDS011;2065;49.790;9.620;2023-04-08T08:38:37;20.47;;;13.03;;
4102;SDS011;2065;49.790;9.620;2023-04-08T08:41:04;17.70;;;12.43;;
4102;SDS011;2065;49.790;9.620;2023-04-08T08:43:31;18.70;;;11.77;;
4102;SDS011;2065;49.790;9.620;2023-04-08T08:45:59;18.43;;;12.50;;
4102;SDS011;2065;49.790;9.620;2023-04-08T08:48:26;17.60;;;11.70;;
4102;SDS011;2065;49.790;9.620;2023-04-08T08:50:53;17.37;;;11.87;;
4102;SDS011;2065;49.790;9.620;2023-04-08T08:53:21;20.60;;;12.57;;
4102;SDS011;2065;49.790;9.620;2023-04-08T08:55:55;16.03;;;11.90;;
4102;SDS011;2065;49.790;9.620;2023-04-08T08:58:25;18.70;;;11.87;;
4102;SDS011;2065;49.790;9.620;2023-04-08T09:00:52;17.70;;;11.53;;
4102;SDS011;2065;49.790;9.620;2023-04-08T09:03:20;17.87;;;12.13;;
4102;SDS011;2065;49.790;9.620;2023-04-08T09:05:51;16.07;;;11.20;;
4102;SDS011;2065;49.790;9.620;2023-04-08T09:08:28;20.20;;;11.73;;
4102;SDS011;2065;49.790;9.620;2023-04-08T09:11:09;21.20;;;12.50;;
4102;SDS011;2065;49.790;9.620;2023-04-08T09:13:38;23.57;;;14.10;;
4102;SDS011;2065;49.790;9.620;2023-04-08T09:16:06;22.20;;;14.73;;
4102;SDS011;2065;49.790;9.620;2023-04-08T09:18:34;19.50;;;13.37;;
4102;SDS011;2065;49.790;9.620;2023-04-08T09:21:02;21.20;;;12.60;;
4102;SDS011;2065;49.790;9.620;2023-04-08T09:23:38;17.03;;;11.90;;
4102;SDS011;2065;49.790;9.620;2023-04-08T09:26:07;17.67;;;12.67;;
4102;SDS011;2065;49.790;9.620;2023-04-08T09:28:35;13.50;;;9.73;;
4102;SDS011;2065;49.790;9.620;2023-04-08T09:31:17;20.37;;;11.80;;
4102;SDS011;2065;49.790;9.620;2023-04-08T09:33:45;12.20;;;9.50;;
4102;SDS011;2065;49.790;9.620;2023-04-08T09:36:13;13.60;;;8.23;;
4102;SDS011;2065;49.790;9.620;2023-04-08T09:38:42;11.70;;;9.17;;
4102;SDS011;2065;49.790;9.620;2023-04-08T09:41:11;13.37;;;8.10;;
4102;SDS011;2065;49.790;9.620;2023-04-08T09:43:40;12.10;;;8.30;;
4102;SDS011;2065;49.790;9.620;2023-04-08T09:46:13;12.80;;;7.37;;
4102;SDS011;2065;49.790;9.620;2023-04-08T09:48:45;14.10;;;9.23;;
4102;SDS011;2065;49.790;9.620;2023-04-08T09:51:17;14.77;;;8.80;;
4102;SDS011;2065;49.790;9.620;2023-04-08T09:53:48;12.60;;;9.23;;
4102;SDS011;2065;49.790;9.620;2023-04-08T09:56:21;14.33;;;8.03;;
4102;SDS011;2065;49.790;9.620;2023-04-08T09:58:50;9.73;;;7.10;;
4102;SDS011;2065;49.790;9.620;2023-04-08T10:01:23;11.57;;;9.43;;
4102;SDS011;2065;49.790;9.620;2023-04-08T10:03:57;10.47;;;7.70;;
4102;SDS011;2065;49.790;9.620;2023-04-08T10:06:27;11.13;;;7.33;;
4102;SDS011;2065;49.790;9.620;2023-04-08T10:08:57;10.63;;;7.90;;
4102;SDS011;2065;49.790;9.620;2023-04-08T10:11:26;10.60;;;7.60;;
4102;SDS011;2065;49.790;9.620;2023-04-08T10:13:55;9.10;;;7.00;;
4102;SDS011;2065;49.790;9.620;2023-04-08T10:16:22;8.53;;;6.53;;
4102;SDS011;2065;49.790;9.620;2023-04-08T10:18:51;7.90;;;6.47;;
4102;SDS011;2065;49.790;9.620;2023-04-08T10:21:30;7.37;;;5.47;;
4102;SDS011;2065;49.790;9.620;2023-04-08T10:24:00;6.67;;;5.80;;
4102;SDS011;2065;49.790;9.620;2023-04-08T10:26:35;7.27;;;6.33;;
4102;SDS011;2065;49.790;9.620;2023-04-08T10:32:06;8.90;;;6.17;;
4102;SDS011;2065;49.790;9.620;2023-04-08T10:34:34;7.70;;;6.90;;
4102;SDS011;2065;49.790;9.620;2023-04-08T10:37:16;6.10;;;5.50;;
4102;SDS011;2065;49.790;9.620;2023-04-08T10:39:48;9.30;;;7.30;;
4102;SDS011;2065;49.790;9.620;2023-04-08T10:42:17;8.00;;;5.97;;
4102;SDS011;2065;49.790;9.620;2023-04-08T10:44:44;7.23;;;6.40;;
4102;SDS011;2065;49.790;9.620;2023-04-08T10:47:11;8.53;;;5.90;;
4102;SDS011;2065;49.790;9.620;2023-04-08T10:49:39;7.27;;;5.50;;
4102;SDS011;2065;49.790;9.620;2023-04-08T10:52:07;6.80;;;5.80;;
4102;SDS011;2065;49.790;9.620;2023-04-08T10:54:35;10.57;;;6.90;;
4102;SDS011;2065;49.790;9.620;2023-04-08T10:57:05;6.43;;;5.03;;
4102;SDS011;2065;49.790;9.620;2023-04-08T10:59:32;7.97;;;6.10;;
4102;SDS011;2065;49.790;9.620;2023-04-08T11:01:59;7.07;;;6.00;;
4102;SDS011;2065;49.790;9.620;2023-04-08T11:04:26;8.03;;;6.40;;
4102;SDS011;2065;49.790;9.620;2023-04-08T11:06:53;7.00;;;6.20;;
4102;SDS011;2065;49.790;9.620;2023-04-08T11:09:20;6.40;;;5.70;;
4102;SDS011;2065;49.790;9.620;2023-04-08T11:11:47;9.50;;;6.60;;
4102;SDS011;2065;49.790;9.620;2023-04-08T11:14:16;16.73;;;7.43;;
4102;SDS011;2065;49.790;9.620;2023-04-08T11:16:46;11.17;;;7.33;;
4102;SDS011;2065;49.790;9.620;2023-04-08T11:19:13;8.67;;;6.27;;
4102;SDS011;2065;49.790;9.620;2023-04-08T11:21:40;8.33;;;7.47;;
4102;SDS011;2065;49.790;9.620;2023-04-08T11:24:10;8.60;;;6.90;;
4102;SDS011;2065;49.790;9.620;2023-04-08T11:26:38;8.97;;;6.80;;
4102;SDS011;2065;49.790;9.620;2023-04-08T11:29:08;7.10;;;6.40;;
4102;SDS011;2065;49.790;9.620;2023-04-08T11:31:40;7.70;;;6.90;;
4102;SDS011;2065;49.790;9.620;2023-04-08T11:34:07;9.90;;;6.40;;
4102;SDS011;2065;49.790;9.620;2023-04-08T11:36:35;11.20;;;6.30;;
4102;SDS011;2065;49.790;9.620;2023-04-08T11:39:05;7.80;;;6.40;;
4102;SDS011;2065;49.790;9.620;2023-04-08T11:41:37;8.53;;;6.37;;
4102;SDS011;2065;49.790;9.620;2023-04-08T11:44:04;7.27;;;5.77;;
4102;SDS011;2065;49.790;9.620;2023-04-08T11:46:32;7.37;;;6.00;;
4102;SDS011;2065;49.790;9.620;2023-04-08T11:49:02;9.07;;;5.57;;
4102;SDS011;2065;49.790;9.620;2023-04-08T11:51:30;6.43;;;5.00;;
4102;SDS011;2065;49.790;9.620;2023-04-08T11:53:58;7.20;;;6.40;;
4102;SDS011;2065;49.790;9.620;2023-04-08T11:56:26;6.37;;;5.20;;
4102;SDS011;2065;49.790;9.620;2023-04-08T11:58:54;8.23;;;4.90;;
4102;SDS011;2065;49.790;9.620;2023-04-08T12:01:21;5.73;;;5.00;;
4102;SDS011;2065;49.790;9.620;2023-04-08T12:03:55;7.07;;;6.00;;
4102;SDS011;2065;49.790;9.620;2023-04-08T12:06:24;6.63;;;5.70;;
4102;SDS011;2065;49.790;9.620;2023-04-08T12:08:53;6.50;;;5.87;;
4102;SDS011;2065;49.790;9.620;2023-04-08T12:11:20;8.33;;;6.07;;
4102;SDS011;2065;49.790;9.620;2023-04-08T12:13:48;7.50;;;6.03;;
4102;SDS011;2065;49.790;9.620;2023-04-08T12:16:17;8.70;;;5.50;;
4102;SDS011;2065;49.790;9.620;2023-04-08T12:18:44;8.90;;;6.57;;
4102;SDS011;2065;49.790;9.620;2023-04-08T12:21:12;8.47;;;7.10;;
4102;SDS011;2065;49.790;9.620;2023-04-08T12:23:40;8.00;;;6.07;;
4102;SDS011;2065;49.790;9.620;2023-04-08T12:26:07;7.70;;;6.23;;
4102;SDS011;2065;49.790;9.620;2023-04-08T12:28:34;8.90;;;6.40;;
4102;SDS011;2065;49.790;9.620;2023-04-08T12:31:02;9.20;;;5.97;;
4102;SDS011;2065;49.790;9.620;2023-04-08T12:33:29;5.43;;;4.93;;
4102;SDS011;2065;49.790;9.620;2023-04-08T12:35:56;5.87;;;5.37;;
4102;SDS011;2065;49.790;9.620;2023-04-08T12:38:23;8.50;;;7.13;;
4102;SDS011;2065;49.790;9.620;2023-04-08T12:40:52;6.63;;;4.97;;
4102;SDS011;2065;49.790;9.620;2023-04-08T12:43:19;5.50;;;4.97;;
4102;SDS011;2065;49.790;9.620;2023-04-08T12:45:46;7.33;;;5.20;;
4102;SDS011;2065;49.790;9.620;2023-04-08T12:48:14;5.50;;;5.10;;
4102;SDS011;2065;49.790;9.620;2023-04-08T12:50:41;6.17;;;5.17;;
4102;SDS011;2065;49.790;9.620;2023-04-08T12:53:08;5.10;;;4.60;;
4102;SDS011;2065;49.790;9.620;2023-04-08T12:55:35;7.00;;;5.33;;
4102;SDS011;2065;49.790;9.620;2023-04-08T12:58:03;6.60;;;5.80;;
4102;SDS011;2065;49.790;9.620;2023-04-08T13:00:31;5.60;;;5.00;;
4102;SDS011;2065;49.790;9.620;2023-04-08T13:02:58;5.93;;;4.53;;
4102;SDS011;2065;49.790;9.620;2023-04-08T13:05:25;6.70;;;5.60;;
4102;SDS011;2065;49.790;9.620;2023-04-08T13:07:52;5.10;;;4.60;;
4102;SDS011;2065;49.790;9.620;2023-04-08T13:10:19;5.50;;;4.70;;
4102;SDS011;2065;49.790;9.620;2023-04-08T13:12:46;7.30;;;5.00;;
4102;SDS011;2065;49.790;9.620;2023-04-08T13:15:14;6.33;;;4.53;;
4102;SDS011;2065;49.790;9.620;2023-04-08T13:17:41;4.40;;;4.00;;
4102;SDS011;2065;49.790;9.620;2023-04-08T13:20:09;7.37;;;4.87;;
4102;SDS011;2065;49.790;9.620;2023-04-08T13:22:36;5.90;;;4.53;;
4102;SDS011;2065;49.790;9.620;2023-04-08T13:25:06;5.20;;;4.40;;
4102;SDS011;2065;49.790;9.620;2023-04-08T13:27:33;5.57;;;3.50;;
4102;SDS011;2065;49.790;9.620;2023-04-08T13:30:00;5.50;;;3.50;;
4102;SDS011;2065;49.790;9.620;2023-04-08T13:32:29;3.90;;;3.40;;
4102;SDS011;2065;49.790;9.620;2023-04-08T13:34:56;3.70;;;3.23;;
4102;SDS011;2065;49.790;9.620;2023-04-08T13:37:23;3.90;;;3.27;;
4102;SDS011;2065;49.790;9.620;2023-04-08T13:39:51;3.60;;;3.20;;
4102;SDS011;2065;49.790;9.620;2023-04-08T13:42:18;4.30;;;3.90;;
4102;SDS011;2065;49.790;9.620;2023-04-08T13:44:46;4.40;;;4.00;;
4102;SDS011;2065;49.790;9.620;2023-04-08T13:47:13;3.77;;;3.37;;
4102;SDS011;2065;49.790;9.620;2023-04-08T13:49:42;2.77;;;2.57;;
4102;SDS011;2065;49.790;9.620;2023-04-08T13:52:09;3.57;;;3.13;;
4102;SDS011;2065;49.790;9.620;2023-04-08T13:54:36;6.33;;;3.43;;
4102;SDS011;2065;49.790;9.620;2023-04-08T13:57:03;3.47;;;3.10;;
4102;SDS011;2065;49.790;9.620;2023-04-08T13:59:31;3.90;;;3.20;;
4102;SDS011;2065;49.790;9.620;2023-04-08T14:01:58;3.80;;;3.00;;
4102;SDS011;2065;49.790;9.620;2023-04-08T14:04:25;3.80;;;3.50;;
4102;SDS011;2065;49.790;9.620;2023-04-08T14:06:53;6.80;;;4.30;;
4102;SDS011;2065;49.790;9.620;2023-04-08T14:09:22;4.60;;;3.93;;
4102;SDS011;2065;49.790;9.620;2023-04-08T14:11:49;3.50;;;3.20;;
4102;SDS011;2065;49.790;9.620;2023-04-08T14:14:17;3.30;;;3.00;;
4102;SDS011;2065;49.790;9.620;2023-04-08T14:16:44;3.57;;;3.27;;
4102;SDS011;2065;49.790;9.620;2023-04-08T14:19:11;4.20;;;3.90;;
4102;SDS011;2065;49.790;9.620;2023-04-08T14:21:38;3.40;;;3.10;;
4102;SDS011;2065;49.790;9.620;2023-04-08T14:24:07;4.40;;;3.57;;
4102;SDS011;2065;49.790;9.620;2023-04-08T14:26:34;3.90;;;3.47;;
4102;SDS011;2065;49.790;9.620;2023-04-08T14:29:02;3.60;;;3.30;;
4102;SDS011;2065;49.790;9.620;2023-04-08T14:31:29;4.50;;;4.10;;
4102;SDS011;2065;49.790;9.620;2023-04-08T14:33:57;5.13;;;4.30;;
4102;SDS011;2065;49.790;9.620;2023-04-08T14:36:24;4.37;;;3.57;;
4102;SDS011;2065;49.790;9.620;2023-04-08T14:38:52;5.00;;;4.00;;
4102;SDS011;2065;49.790;9.620;2023-04-08T14:41:21;4.07;;;3.10;;
4102;SDS011;2065;49.790;9.620;2023-04-08T14:43:50;4.00;;;3.30;;
4102;SDS011;2065;49.790;9.620;2023-04-08T14:46:17;5.10;;;4.67;;
4102;SDS011;2065;49.790;9.620;2023-04-08T14:48:45;3.67;;;3.37;;
4102;SDS011;2065;49.790;9.620;2023-04-08T14:51:12;4.50;;;4.10;;
4102;SDS011;2065;49.790;9.620;2023-04-08T14:53:39;4.13;;;3.10;;
4102;SDS011;2065;49.790;9.620;2023-04-08T14:56:06;4.00;;;3.47;;
4102;SDS011;2065;49.790;9.620;2023-04-08T14:58:35;4.27;;;3.33;;
4102;SDS011;2065;49.790;9.620;2023-04-08T15:01:03;4.10;;;3.07;;
4102;SDS011;2065;49.790;9.620;2023-04-08T15:03:30;3.97;;;3.47;;
4102;SDS011;2065;49.790;9.620;2023-04-08T15:05:57;5.90;;;3.50;;